Gordon, GA

6:33 AM EDT on October 02, 2014 (GMT -0400)
RAWS MILLEDGEVILLE GA US | Change Station
CLOSE
Current Station
Personal Weather Station
Location: Hardwick, GA
Elevation: 395 ft
Nearby Weather Stations

Elev 395 ft 33.01 °N, 83.21 °W | Updated 30 minutes ago

Clear
Clear
61 °F
Feels Like 61 °F
N
0
Wind Variable Wind from North
Gusts 0.0 mph

Today
High -- | Low -- °F
--% Chance of Precip.
Yesterday
High -- | Low -- °F
Precip. -- in
7:28 AM 7:16 PM
First Quarter, 57% visible
Pressure 30.06 in
Visibility 7.0 miles
Clouds Clear
Dew Point 60 °F
Humidity 96%
Rainfall 0.00 in
Snow Depth Not available.
UV 0 out of 12
Pollen 6.80 out of 12
Air Quality Not available.
Flu Activity Not available.
METAR KMLJ 021015Z AUTO 00000KT 7SM CLR 18/18 A3006 RMK AO2

More Conditions Fewer Conditions

Pressure 30.06 in
Visibility 7.0 miles
Clouds Clear
Dew Point 60 °F
Humidity 96%
Rainfall 0.00 in
Snow Depth Not available.
UV 0 out of 12
Pollen 6.80 out of 12
Air Quality Not available.
Flu Activity Not available.
METAR KMLJ 021015Z AUTO 00000KT 7SM CLR 18/18 A3006 RMK AO2

More Conditions Fewer Conditions

10-Day Weather Forecast

Almanac

Astronomy

Oct. 02, 2014 Rise Set
Actual Time 7:28 AM EDT 7:16 PM EDT
Civil Twilight 7:03 AM EDT 7:41 PM EDT
Nautical Twilight 6:34 AM EDT 8:09 PM EDT
Astronomical Twilight 6:06 AM EDT 8:38 PM EDT
Moon 3:05 PM EDT 1:01 AM EDT
Length of Visible Light 12h 37m
Length of Day
11h 48m
Tomorrow will be 2m 0s shorter.
First Quarter, 57% of the Moon is Illuminated
Today
First Quarter
Oct 8
Full
Oct 15
Last Quarter
Oct 23
New
Oct 30
First Quarter

Today's Extremes

State Highs State Lows

Community

WunderPhotos

Upload Photos

1,758,210 photos uploaded!

WunderBlogs® & News

Nearby

Snow Depth

Station Depth Elevation
No new snow has been reported.

Earthquake Activity

City Distance Mag. Time & Date
No recent earthquake activity has been reported nearby.
Minimum magnitude displayed is 2.5.

Coastal Water Temperatures

Place Temperature
No Stations Reporting

Nearby Weather Stations